EETN/TLL METAR and TAF weather

Enter ICAO airport designator
Station Type Date Time Source
EETN METAR 2019/08/24 19:50 UTC NOAA

EETN 241950Z 25004KT CAVOK 13/12 Q1026 NOSIG


Station Type Date Time Source
EETN Decoded METAR 2019/08/24 19:50 UTC NOAA

Station name not available
Aug 24, 2019 - 03:50 PM EDT / 2019.08.24 1950 UTC
Wind: from the WSW (250 degrees) at 5 MPH (4 KT):0
Visibility: greater than 7 mile(s):0
Temperature: 55 F (13 C)
Dew Point: 53 F (12 C)
Relative Humidity: 93%
Pressure (altimeter): 30.30 in. Hg (1026 hPa)
ob: EETN 241950Z 25004KT CAVOK 13/12 Q1026 NOSIG
cycle: 20

Station Type Date Time Source
EETN TAF 2019/08/24 18:03 UTC NOAA

TAF TAF EETN 241701Z 2418/2518 28010KT 9999 SCT030
BECMG 2419/2421 VRB02KT
TEMPO 2421/2423 2000 BR BCFG BKN003
TEMPO 2423/2505 0700 BCFG BKN002
TEMPO 2510/2516 30010KT

Example: see airport list